createdAt,value
2018-05-11T00:02:11.790Z,10.60
2018-05-11T00:04:39.250Z,10.60
2018-05-11T00:07:06.691Z,10.60
2018-05-11T00:09:34.163Z,10.60
2018-05-11T00:12:01.614Z,10.60
2018-05-11T00:14:29.090Z,10.60
2018-05-11T00:16:56.583Z,10.50
2018-05-11T00:19:24.038Z,10.50
2018-05-11T00:21:51.502Z,10.50
2018-05-11T00:24:19.730Z,10.50
2018-05-11T00:26:47.177Z,10.40
2018-05-11T00:29:14.680Z,10.50
2018-05-11T00:31:42.125Z,10.50
2018-05-11T00:34:09.582Z,10.50
2018-05-11T00:36:37.040Z,10.50
2018-05-11T00:39:04.508Z,10.50
2018-05-11T00:41:31.963Z,10.50
2018-05-11T00:43:59.455Z,10.40
2018-05-11T00:46:27.661Z,10.40
2018-05-11T00:48:55.122Z,10.30
2018-05-11T00:51:22.584Z,10.40
2018-05-11T00:53:50.047Z,10.30
2018-05-11T00:56:17.498Z,10.30
2018-05-11T00:58:44.977Z,10.30
2018-05-11T01:01:12.430Z,10.30
2018-05-11T01:03:39.898Z,10.30
2018-05-11T01:06:07.354Z,10.30
2018-05-11T01:08:34.842Z,10.30
2018-05-11T01:11:02.305Z,10.30
2018-05-11T01:13:29.771Z,10.30
2018-05-11T01:15:57.230Z,10.30
2018-05-11T01:18:24.691Z,10.20
2018-05-11T01:20:52.142Z,10.20
2018-05-11T01:23:19.607Z,10.20
2018-05-11T01:25:47.061Z,10.20
2018-05-11T01:28:14.533Z,10.20
2018-05-11T01:30:41.990Z,10.20
2018-05-11T01:33:10.230Z,10.20
2018-05-11T01:35:37.681Z,10.10
2018-05-11T01:38:05.153Z,10.20
2018-05-11T01:40:32.610Z,10.10
2018-05-11T01:43:00.051Z,10.10
2018-05-11T01:45:27.519Z,10.00
2018-05-11T01:47:54.967Z,10.00
2018-05-11T01:50:22.430Z,10.00
2018-05-11T01:52:49.871Z,10.00
2018-05-11T01:55:18.112Z,10.00
2018-05-11T01:57:45.556Z,10.00
2018-05-11T02:00:13.045Z,10.00
2018-05-11T02:02:40.496Z,10.00
2018-05-11T02:05:07.962Z,10.00
2018-05-11T02:07:36.189Z,9.90
2018-05-11T02:10:03.646Z,9.90
2018-05-11T02:12:31.198Z,9.90
2018-05-11T02:14:58.643Z,10.00
2018-05-11T02:17:26.092Z,9.90
2018-05-11T02:19:53.553Z,9.90
2018-05-11T02:22:20.999Z,9.90
2018-05-11T02:24:48.469Z,9.90
2018-05-11T02:27:15.927Z,9.90
2018-05-11T02:29:43.373Z,9.90
2018-05-11T02:32:10.822Z,9.80
2018-05-11T02:34:38.291Z,9.90
2018-05-11T02:37:05.752Z,9.90
2018-05-11T02:39:33.186Z,9.90
2018-05-11T02:42:01.402Z,9.80
2018-05-11T02:44:28.858Z,9.80
2018-05-11T02:46:56.309Z,9.80
2018-05-11T02:49:23.770Z,9.80
2018-05-11T02:51:51.566Z,9.80
2018-05-11T02:54:18.978Z,9.80
2018-05-11T02:56:46.438Z,9.80
2018-05-11T02:59:13.888Z,9.70
2018-05-11T03:01:41.337Z,9.70
2018-05-11T03:04:08.781Z,9.70
2018-05-11T03:06:36.233Z,9.70
2018-05-11T03:09:04.443Z,9.70
2018-05-11T03:11:31.898Z,9.70
2018-05-11T03:13:59.401Z,9.70
2018-05-11T03:16:26.883Z,9.70
2018-05-11T03:18:55.092Z,9.70
2018-05-11T03:21:22.545Z,9.60
2018-05-11T03:23:49.993Z,9.70
2018-05-11T03:26:17.436Z,9.70
2018-05-11T03:28:44.884Z,9.70
2018-05-11T03:31:13.111Z,9.70
2018-05-11T03:33:40.546Z,9.70
2018-05-11T03:36:08.012Z,9.70
2018-05-11T03:38:35.458Z,9.70
2018-05-11T03:41:02.909Z,9.70
2018-05-11T03:43:30.365Z,9.80
2018-05-11T03:45:57.805Z,9.80
2018-05-11T03:48:25.262Z,9.80
2018-05-11T03:50:52.724Z,9.90
2018-05-11T03:53:21.023Z,9.80
2018-05-11T03:55:48.481Z,9.80
2018-05-11T03:58:15.931Z,9.80
2018-05-11T04:00:43.374Z,9.80
2018-05-11T04:03:22.710Z,9.80
2018-05-11T04:09:02.693Z,10.00
2018-05-11T04:11:30.154Z,10.00
2018-05-11T04:13:57.598Z,10.10
2018-05-11T04:16:25.034Z,10.10
2018-05-11T04:18:53.266Z,10.30
2018-05-11T04:21:20.717Z,10.20
2018-05-11T04:23:48.181Z,10.30
2018-05-11T04:26:15.634Z,10.30
2018-05-11T04:28:43.854Z,10.40
2018-05-11T04:31:12.080Z,10.50
2018-05-11T04:33:39.556Z,10.40
2018-05-11T04:36:07.010Z,10.50
2018-05-11T04:38:34.449Z,10.40
2018-05-11T04:41:01.909Z,10.50
2018-05-11T04:43:29.349Z,10.50
2018-05-11T04:45:56.845Z,10.60
2018-05-11T04:48:24.278Z,10.60
2018-05-11T04:50:51.738Z,10.70
2018-05-11T04:53:19.274Z,10.70
2018-05-11T04:55:46.717Z,10.80
2018-05-11T04:58:14.170Z,10.90
2018-05-11T05:00:42.400Z,10.90
2018-05-11T05:03:10.623Z,10.90
2018-05-11T05:05:38.070Z,10.90
2018-05-11T05:08:06.282Z,10.90
2018-05-11T05:10:33.722Z,10.80
2018-05-11T05:13:01.166Z,10.90
2018-05-11T05:15:29.392Z,10.90
2018-05-11T05:17:56.845Z,10.80
2018-05-11T05:20:24.292Z,10.90
2018-05-11T05:22:51.754Z,10.90
2018-05-11T05:25:19.201Z,10.90
2018-05-11T05:27:47.432Z,10.90
2018-05-11T05:30:14.867Z,10.80
2018-05-11T05:32:42.313Z,10.90
2018-05-11T05:35:09.767Z,10.80
2018-05-11T05:37:37.221Z,10.80
2018-05-11T05:40:05.444Z,10.80
2018-05-11T05:42:33.663Z,10.80
2018-05-11T05:45:01.094Z,10.80
2018-05-11T05:47:28.555Z,10.90
2018-05-11T05:49:55.994Z,10.90
2018-05-11T05:52:23.442Z,11.00
2018-05-11T05:54:50.893Z,11.00
2018-05-11T05:57:19.108Z,11.00
2018-05-11T05:59:46.560Z,10.90
2018-05-11T06:02:14.007Z,11.00
2018-05-11T06:04:41.508Z,11.00
2018-05-11T06:07:09.642Z,11.20
2018-05-11T06:09:37.092Z,11.20
2018-05-11T06:12:04.551Z,11.20
2018-05-11T06:14:31.985Z,11.20
2018-05-11T06:16:59.435Z,11.20
2018-05-11T06:19:26.869Z,11.20
2018-05-11T06:21:54.406Z,11.30
2018-05-11T06:24:22.554Z,11.40
2018-05-11T06:26:50.008Z,11.30
2018-05-11T06:29:17.453Z,11.40
2018-05-11T06:31:44.901Z,11.40
2018-05-11T06:34:13.118Z,11.50
2018-05-11T06:36:40.610Z,11.50
2018-05-11T06:39:08.044Z,11.50
2018-05-11T06:41:36.258Z,11.50
2018-05-11T06:44:04.482Z,11.60
2018-05-11T06:46:31.945Z,11.60
2018-05-11T06:48:59.394Z,11.70
2018-05-11T06:51:26.857Z,11.60
2018-05-11T06:53:54.438Z,11.60
2018-05-11T06:56:21.889Z,11.60
2018-05-11T06:58:49.345Z,11.70
2018-05-11T07:01:16.789Z,11.70
2018-05-11T07:03:44.241Z,11.80
2018-05-11T07:06:11.716Z,12.00
2018-05-11T07:08:39.177Z,12.10
2018-05-11T07:11:06.635Z,12.30
2018-05-11T07:13:34.077Z,12.50
2018-05-11T07:16:01.538Z,12.50
2018-05-11T07:18:28.993Z,12.50
2018-05-11T07:20:56.433Z,12.30
2018-05-11T07:23:23.895Z,12.30
2018-05-11T07:25:51.349Z,12.30
2018-05-11T07:28:18.788Z,12.50
2018-05-11T07:30:46.218Z,12.60
2018-05-11T07:33:13.684Z,12.80
2018-05-11T07:35:41.148Z,12.80
2018-05-11T07:38:08.600Z,12.90
2018-05-11T07:40:36.049Z,12.90
2018-05-11T07:43:04.299Z,12.90
2018-05-11T07:45:31.714Z,12.80
2018-05-11T07:47:59.153Z,12.80
2018-05-11T07:50:26.596Z,12.80
2018-05-11T07:52:54.805Z,12.70
2018-05-11T07:55:22.241Z,12.70
2018-05-11T07:57:49.705Z,12.90
2018-05-11T08:00:17.142Z,12.90
2018-05-11T08:02:44.594Z,13.10
2018-05-11T08:05:12.825Z,13.30
2018-05-11T08:07:40.310Z,13.20
2018-05-11T08:10:07.757Z,13.50
2018-05-11T08:12:35.217Z,13.50
2018-05-11T08:15:02.656Z,13.60
2018-05-11T08:17:31.606Z,13.70
2018-05-11T08:19:59.075Z,13.70
2018-05-11T08:22:26.525Z,14.00
2018-05-11T08:24:53.971Z,14.00
2018-05-11T08:27:21.405Z,13.90
2018-05-11T08:29:48.847Z,13.70
2018-05-11T08:32:17.065Z,13.60
2018-05-11T08:34:45.135Z,13.50
2018-05-11T08:37:12.593Z,13.80
2018-05-11T08:39:40.044Z,13.80
2018-05-11T08:42:07.480Z,14.10
2018-05-11T08:44:35.698Z,14.10
2018-05-11T08:47:03.155Z,14.00
2018-05-11T08:49:31.377Z,13.60
2018-05-11T08:51:59.719Z,13.50
2018-05-11T08:54:27.065Z,13.50
2018-05-11T08:56:54.507Z,13.50
2018-05-11T08:59:21.976Z,13.60
2018-05-11T09:01:49.409Z,13.70
2018-05-11T09:04:16.867Z,13.90
2018-05-11T09:06:44.312Z,14.30
2018-05-11T09:09:11.762Z,14.40
2018-05-11T09:11:39.965Z,14.80
2018-05-11T09:14:07.424Z,14.70
2018-05-11T09:16:34.869Z,14.80
2018-05-11T09:19:02.353Z,14.70
2018-05-11T09:21:29.875Z,14.80
2018-05-11T09:23:57.255Z,14.50
2018-05-11T09:26:24.697Z,14.40
2018-05-11T09:28:52.153Z,14.50
2018-05-11T09:31:19.621Z,14.70
2018-05-11T09:33:47.073Z,14.90
2018-05-11T09:36:14.521Z,15.00
2018-05-11T09:38:41.980Z,15.00
2018-05-11T09:41:09.441Z,15.00
2018-05-11T09:43:36.881Z,15.30
2018-05-11T09:46:04.328Z,15.30
2018-05-11T09:48:32.552Z,15.30
2018-05-11T09:50:59.995Z,15.30
2018-05-11T09:53:27.499Z,15.40
2018-05-11T09:55:54.942Z,15.50
2018-05-11T09:58:22.394Z,15.80
2018-05-11T10:00:49.890Z,15.90
2018-05-11T10:03:17.350Z,16.10
2018-05-11T10:05:45.585Z,15.90
2018-05-11T10:08:13.035Z,15.80
2018-05-11T10:10:40.512Z,15.90
2018-05-11T10:13:07.961Z,15.80
2018-05-11T10:15:35.458Z,15.60
2018-05-11T10:18:03.660Z,15.80
2018-05-11T10:20:31.881Z,15.80
2018-05-11T10:22:59.311Z,15.80
2018-05-11T10:25:26.769Z,15.90
2018-05-11T10:27:54.201Z,16.20
2018-05-11T10:30:21.655Z,16.40
2018-05-11T10:32:49.098Z,16.50
2018-05-11T10:35:16.553Z,16.80
2018-05-11T10:37:43.988Z,17.10
2018-05-11T10:40:12.197Z,16.80
2018-05-11T10:42:39.665Z,16.80
2018-05-11T10:45:07.135Z,16.70
2018-05-11T10:47:34.574Z,16.60
2018-05-11T10:50:02.080Z,16.60
2018-05-11T10:52:29.510Z,16.80
2018-05-11T10:54:56.983Z,17.00
2018-05-11T10:57:25.173Z,17.10
2018-05-11T10:59:53.381Z,16.90
2018-05-11T11:02:20.964Z,16.90
2018-05-11T11:04:48.322Z,16.90
2018-05-11T11:07:15.765Z,16.90
2018-05-11T11:09:43.229Z,16.80
2018-05-11T11:12:10.683Z,16.70
2018-05-11T11:14:38.131Z,16.80
2018-05-11T11:17:05.566Z,16.60
2018-05-11T11:19:33.005Z,16.60
2018-05-11T11:22:01.215Z,16.70
2018-05-11T11:24:28.650Z,16.70
2018-05-11T11:26:56.091Z,16.90
2018-05-11T11:29:24.313Z,16.90
2018-05-11T11:31:52.521Z,16.80
2018-05-11T11:34:20.011Z,16.70
2018-05-11T11:36:47.418Z,16.90
2018-05-11T11:39:14.915Z,17.00
2018-05-11T11:41:42.361Z,17.00
2018-05-11T11:44:13.049Z,17.30
2018-05-11T11:46:40.494Z,17.60
2018-05-11T11:49:07.949Z,17.80
2018-05-11T11:51:35.387Z,17.90
2018-05-11T11:54:02.843Z,18.00
2018-05-11T11:56:30.378Z,18.00
2018-05-11T11:58:58.506Z,18.10
2018-05-11T12:01:26.042Z,18.00
2018-05-11T12:03:53.482Z,18.10
2018-05-11T12:06:21.714Z,18.10
2018-05-11T12:08:49.256Z,18.00
2018-05-11T12:11:16.689Z,18.10
2018-05-11T12:13:44.129Z,18.30
2018-05-11T12:16:11.574Z,18.40
2018-05-11T12:18:39.775Z,18.10
2018-05-11T12:21:07.230Z,18.10
2018-05-11T12:23:34.665Z,18.20
2018-05-11T12:26:02.881Z,18.40
2018-05-11T12:28:30.323Z,18.40
2018-05-11T12:30:57.818Z,18.80
2018-05-11T12:33:25.294Z,19.00
2018-05-11T12:35:52.758Z,19.10
2018-05-11T12:38:20.204Z,19.00
2018-05-11T12:40:48.436Z,19.20
2018-05-11T12:43:15.872Z,19.20
2018-05-11T12:45:43.327Z,19.50
2018-05-11T12:48:11.516Z,19.50
2018-05-11T12:50:38.966Z,19.50
2018-05-11T12:53:06.405Z,19.50
2018-05-11T12:55:34.691Z,19.40
2018-05-11T12:58:02.145Z,19.40
2018-05-11T13:00:30.403Z,19.20
2018-05-11T13:02:57.837Z,19.10
2018-05-11T13:05:25.300Z,19.20
2018-05-11T13:07:52.739Z,19.10
2018-05-11T13:10:20.972Z,19.30
2018-05-11T13:12:48.469Z,19.30
2018-05-11T13:15:15.877Z,19.30
2018-05-11T13:17:43.362Z,19.40
2018-05-11T13:20:10.806Z,19.60
2018-05-11T13:22:38.253Z,19.60
2018-05-11T13:25:05.710Z,19.60
2018-05-11T13:27:33.420Z,19.80
2018-05-11T13:30:00.878Z,19.80
2018-05-11T13:32:28.329Z,19.70
2018-05-11T13:34:55.763Z,19.80
2018-05-11T13:37:23.216Z,19.70
2018-05-11T13:39:50.655Z,19.70
2018-05-11T13:42:18.096Z,19.70
2018-05-11T13:44:46.303Z,20.00
2018-05-11T13:47:13.753Z,19.90
2018-05-11T13:49:41.205Z,20.20
2018-05-11T13:52:08.671Z,20.20
2018-05-11T13:54:36.103Z,20.30
2018-05-11T13:57:04.414Z,20.50
2018-05-11T13:59:31.859Z,20.40
2018-05-11T14:01:59.318Z,20.60
2018-05-11T14:04:26.766Z,20.60
2018-05-11T14:06:54.217Z,20.60
2018-05-11T14:09:21.656Z,20.50
2018-05-11T14:11:49.865Z,20.30
2018-05-11T14:14:17.302Z,20.20
2018-05-11T14:16:44.745Z,20.40
2018-05-11T14:19:12.993Z,20.30
2018-05-11T14:21:40.450Z,20.30
2018-05-11T14:24:07.902Z,20.50
2018-05-11T14:26:35.343Z,20.70
2018-05-11T14:29:02.777Z,20.60
2018-05-11T14:31:30.270Z,20.80
2018-05-11T14:33:57.702Z,20.90
2018-05-11T14:36:25.154Z,20.80
2018-05-11T14:38:52.626Z,20.90
2018-05-11T14:41:20.061Z,21.00
2018-05-11T14:43:47.502Z,21.10
2018-05-11T14:46:14.965Z,21.00
2018-05-11T14:48:42.412Z,21.10
2018-05-11T14:51:09.851Z,21.20
2018-05-11T14:53:38.059Z,21.30
2018-05-11T14:56:05.824Z,21.20
2018-05-11T14:58:33.269Z,21.20
2018-05-11T15:01:00.713Z,21.30
2018-05-11T15:03:28.934Z,21.00
2018-05-11T15:05:57.153Z,21.10
2018-05-11T15:08:25.360Z,21.20
2018-05-11T15:10:52.830Z,21.20
2018-05-11T15:13:20.281Z,21.20
2018-05-11T15:15:47.713Z,21.20
2018-05-11T15:18:15.159Z,21.50
2018-05-11T15:20:43.353Z,21.50
2018-05-11T15:23:10.790Z,21.50
2018-05-11T15:25:38.981Z,21.40
2018-05-11T15:28:06.418Z,21.40
2018-05-11T15:30:34.627Z,21.70
2018-05-11T15:33:02.066Z,21.60
2018-05-11T15:35:29.506Z,21.70
2018-05-11T15:37:57.726Z,21.50
2018-05-11T15:40:25.233Z,21.50
2018-05-11T15:42:52.615Z,21.50
2018-05-11T15:45:20.053Z,21.70
2018-05-11T15:47:47.522Z,21.60
2018-05-11T15:50:15.702Z,21.80
2018-05-11T15:52:43.143Z,21.80
2018-05-11T15:55:10.577Z,21.80
2018-05-11T15:57:38.789Z,21.60
2018-05-11T16:00:06.217Z,21.60
2018-05-11T16:02:34.419Z,21.70
2018-05-11T16:05:01.851Z,21.70
2018-05-11T16:07:30.092Z,21.50
2018-05-11T16:09:57.579Z,21.40
2018-05-11T16:12:25.784Z,21.60
2018-05-11T16:14:53.224Z,21.60
2018-05-11T16:17:21.447Z,21.70
2018-05-11T16:19:48.892Z,21.60
2018-05-11T16:22:16.325Z,21.60
2018-05-11T16:24:43.761Z,21.70
2018-05-11T16:27:11.954Z,21.50
2018-05-11T16:29:39.389Z,21.50
2018-05-11T16:32:07.592Z,21.30
2018-05-11T16:34:35.046Z,21.20
2018-05-11T16:37:02.494Z,21.30
2018-05-11T16:39:29.950Z,21.30
2018-05-11T16:41:58.143Z,21.10
2018-05-11T16:44:25.590Z,21.10
2018-05-11T16:46:53.033Z,21.20
2018-05-11T16:49:20.477Z,21.30
2018-05-11T16:51:48.685Z,21.30
2018-05-11T16:54:16.165Z,21.30
2018-05-11T16:56:43.628Z,21.30
2018-05-11T16:59:11.877Z,21.10
2018-05-11T17:01:39.367Z,21.00
2018-05-11T17:04:06.856Z,21.10
2018-05-11T17:06:35.056Z,21.40
2018-05-11T17:09:02.505Z,21.40
2018-05-11T17:11:29.939Z,21.40
2018-05-11T17:13:57.782Z,21.60
2018-05-11T17:16:25.295Z,21.50
2018-05-11T17:18:52.727Z,21.40
2018-05-11T17:21:20.916Z,21.60
2018-05-11T17:23:48.365Z,21.60
2018-05-11T17:26:15.832Z,21.50
2018-05-11T17:28:43.395Z,21.00
2018-05-11T17:31:10.850Z,20.70
2018-05-11T17:33:38.284Z,20.50
2018-05-11T17:36:06.533Z,20.20
2018-05-11T17:38:34.017Z,20.10
2018-05-11T17:41:02.207Z,20.50
2018-05-11T17:43:29.653Z,20.50
2018-05-11T17:45:57.865Z,20.80
2018-05-11T17:48:25.317Z,20.70
2018-05-11T17:50:52.743Z,20.90
2018-05-11T17:53:20.195Z,20.80
2018-05-11T17:55:48.421Z,20.90
2018-05-11T17:58:15.879Z,20.90
2018-05-11T18:00:43.344Z,21.00
2018-05-11T18:03:10.838Z,20.70
2018-05-11T18:05:38.252Z,20.70
2018-05-11T18:08:05.733Z,20.70
2018-05-11T18:10:33.175Z,20.60
2018-05-11T18:13:00.630Z,20.40
2018-05-11T18:15:28.066Z,20.20
2018-05-11T18:17:55.514Z,20.10
2018-05-11T18:20:22.958Z,19.90
2018-05-11T18:22:50.418Z,19.70
2018-05-11T18:25:17.870Z,19.60
2018-05-11T18:27:45.317Z,19.40
2018-05-11T18:30:12.757Z,19.40
2018-05-11T18:32:40.953Z,19.10
2018-05-11T18:35:08.401Z,19.10
2018-05-11T18:37:35.845Z,19.00
2018-05-11T18:40:04.083Z,18.70
2018-05-11T18:42:31.525Z,18.70
2018-05-11T18:44:58.989Z,18.60
2018-05-11T18:47:26.457Z,18.60
2018-05-11T18:49:53.913Z,18.50
2018-05-11T18:52:21.376Z,18.40
2018-05-11T18:54:48.833Z,18.30
2018-05-11T18:57:16.379Z,18.20
2018-05-11T18:59:43.861Z,18.20
2018-05-11T19:02:11.301Z,18.10
2018-05-11T19:04:38.794Z,18.10
2018-05-11T19:07:06.998Z,18.00
2018-05-11T19:09:34.453Z,18.00
2018-05-11T19:12:01.895Z,18.10
2018-05-11T19:14:29.356Z,17.90
2018-05-11T19:16:56.818Z,17.90
2018-05-11T19:19:24.247Z,17.90
2018-05-11T19:21:52.454Z,17.80
2018-05-11T19:24:19.947Z,17.80
2018-05-11T19:26:47.382Z,17.80
2018-05-11T19:29:14.825Z,17.70
2018-05-11T19:31:42.286Z,17.70
2018-05-11T19:34:09.743Z,17.70
2018-05-11T19:36:37.170Z,17.70
2018-05-11T19:39:06.336Z,17.70
2018-05-11T19:41:33.798Z,17.60
2018-05-11T19:44:01.268Z,17.70
2018-05-11T19:46:29.475Z,17.60
2018-05-11T19:48:56.919Z,17.60
2018-05-11T19:51:25.211Z,17.50
2018-05-11T19:53:52.646Z,17.50
2018-05-11T19:56:20.077Z,17.50
2018-05-11T19:58:47.534Z,17.40
2018-05-11T20:01:14.973Z,17.40
2018-05-11T20:03:42.464Z,17.40
2018-05-11T20:06:10.681Z,17.30
2018-05-11T20:08:38.238Z,17.30
2018-05-11T20:11:05.716Z,17.30
2018-05-11T20:13:33.183Z,17.30
2018-05-11T20:16:00.633Z,17.30
2018-05-11T20:18:28.088Z,17.30
2018-05-11T20:20:55.542Z,17.20
2018-05-11T20:23:22.989Z,17.20
2018-05-11T20:25:50.432Z,17.20
2018-05-11T20:28:17.884Z,17.20
2018-05-11T20:30:45.323Z,17.10
2018-05-11T20:33:12.778Z,17.10
2018-05-11T20:35:41.038Z,17.10
2018-05-11T20:38:09.242Z,17.00
2018-05-11T20:40:36.682Z,17.00
2018-05-11T20:43:04.117Z,17.00
2018-05-11T20:45:32.333Z,17.00
2018-05-11T20:47:59.769Z,16.90
2018-05-11T20:50:27.992Z,16.90
2018-05-11T20:52:55.446Z,16.80
2018-05-11T20:55:22.881Z,16.90
2018-05-11T20:57:50.330Z,16.80
2018-05-11T21:00:17.874Z,16.80
2018-05-11T21:02:46.136Z,16.80
2018-05-11T21:05:14.375Z,16.80
2018-05-11T21:07:41.813Z,16.70
2018-05-11T21:10:09.272Z,16.80
2018-05-11T21:12:36.706Z,16.80
2018-05-11T21:15:04.167Z,16.70
2018-05-11T21:17:31.608Z,16.70
2018-05-11T21:19:59.115Z,16.70
2018-05-11T21:22:26.540Z,16.70
2018-05-11T21:24:53.986Z,16.70
2018-05-11T21:27:21.438Z,16.60
2018-05-11T21:29:48.909Z,16.60
2018-05-11T21:32:16.356Z,16.60
2018-05-11T21:34:43.809Z,16.60
2018-05-11T21:37:11.254Z,16.50
2018-05-11T21:39:39.459Z,16.40
2018-05-11T21:42:06.964Z,16.40
2018-05-11T21:44:34.431Z,16.30
2018-05-11T21:47:02.640Z,16.30
2018-05-11T21:49:30.102Z,16.30
2018-05-11T21:51:57.565Z,16.30
2018-05-11T21:54:25.016Z,16.30
2018-05-11T21:56:52.465Z,16.20
2018-05-11T21:59:19.919Z,16.10
2018-05-11T22:01:47.413Z,16.10
2018-05-11T22:04:14.962Z,16.00
2018-05-11T22:06:42.348Z,16.00
2018-05-11T22:09:09.785Z,15.90
2018-05-11T22:11:37.243Z,15.90
2018-05-11T22:14:04.682Z,15.90
2018-05-11T22:16:32.136Z,15.80
2018-05-11T22:18:59.600Z,15.80
2018-05-11T22:21:27.096Z,15.80
2018-05-11T22:23:54.514Z,15.80
2018-05-11T22:26:21.965Z,15.70
2018-05-11T22:28:49.413Z,15.70
2018-05-11T22:31:16.882Z,15.60
2018-05-11T22:33:44.331Z,15.60
2018-05-11T22:36:11.788Z,15.60
2018-05-11T22:38:39.223Z,15.60
2018-05-11T22:41:06.675Z,15.50
2018-05-11T22:43:34.153Z,15.50
2018-05-11T22:46:01.612Z,15.50
2018-05-11T22:48:29.055Z,15.50
2018-05-11T22:50:56.518Z,15.50
2018-05-11T22:53:23.956Z,15.50
2018-05-11T22:55:51.399Z,15.50
2018-05-11T22:58:19.612Z,15.60
2018-05-11T23:00:47.064Z,15.50
2018-05-11T23:03:14.514Z,15.50
2018-05-11T23:05:41.987Z,15.50
2018-05-11T23:08:09.441Z,15.60
2018-05-11T23:10:37.682Z,15.50
2018-05-11T23:13:05.975Z,15.60
2018-05-11T23:15:33.456Z,15.50
2018-05-11T23:18:00.900Z,15.60
2018-05-11T23:20:28.357Z,15.50
2018-05-11T23:22:55.829Z,15.50
2018-05-11T23:25:23.388Z,15.50
2018-05-11T23:27:50.963Z,15.50
2018-05-11T23:30:18.316Z,15.50
2018-05-11T23:32:45.776Z,15.50
2018-05-11T23:35:13.270Z,15.50
2018-05-11T23:37:41.488Z,15.50
2018-05-11T23:40:08.936Z,15.50
2018-05-11T23:42:36.393Z,15.60
2018-05-11T23:45:03.853Z,15.50
2018-05-11T23:47:31.310Z,15.50
2018-05-11T23:49:58.762Z,15.50
2018-05-11T23:52:26.225Z,15.50
2018-05-11T23:54:53.668Z,15.50
2018-05-11T23:57:21.117Z,15.40
2018-05-11T23:59:48.600Z,15.40
